createdAt,value
2023-08-27T00:01:42.634Z,96700.75
2023-08-27T00:04:04.401Z,96695.97
2023-08-27T00:06:17.229Z,96690.13
2023-08-27T00:08:28.828Z,96676.56
2023-08-27T00:10:40.966Z,96677.38
2023-08-27T00:12:51.102Z,96678.69
2023-08-27T00:15:00.017Z,96670.47
2023-08-27T00:17:09.993Z,96648.22
2023-08-27T00:19:18.732Z,96627.06
2023-08-27T00:21:30.281Z,96617.53
2023-08-27T00:23:43.813Z,96622.59
2023-08-27T00:25:54.028Z,96642.00
2023-08-27T00:28:03.782Z,96643.59
2023-08-27T00:30:13.766Z,96648.72
2023-08-27T00:32:26.077Z,96667.00
2023-08-27T00:34:44.561Z,96689.31
2023-08-27T00:37:02.873Z,96690.03
2023-08-27T00:39:17.432Z,96691.25
2023-08-27T00:41:27.256Z,96691.38
2023-08-27T00:43:47.133Z,96690.75
2023-08-27T00:45:56.404Z,96695.16
2023-08-27T00:48:05.335Z,96699.75
2023-08-27T00:50:15.272Z,96709.31
2023-08-27T00:52:32.950Z,96712.00
2023-08-27T00:55:18.705Z,96717.38
2023-08-27T00:57:39.920Z,96730.38
2023-08-27T01:00:01.557Z,96736.41
2023-08-27T01:02:21.268Z,96741.94
2023-08-27T01:04:34.687Z,96747.13
2023-08-27T01:06:47.183Z,96750.63
2023-08-27T01:09:07.805Z,96760.34
2023-08-27T01:11:23.380Z,96758.97
2023-08-27T01:13:41.767Z,96762.66
2023-08-27T01:16:09.445Z,96756.34
2023-08-27T01:18:19.904Z,96756.72
2023-08-27T01:20:28.345Z,96765.06
2023-08-27T01:22:41.252Z,96763.03
2023-08-27T01:24:49.949Z,96758.38
2023-08-27T01:27:08.958Z,96745.97
2023-08-27T01:29:32.070Z,96734.38
2023-08-27T01:31:46.056Z,96731.22
2023-08-27T01:34:35.444Z,96718.75
2023-08-27T01:36:53.138Z,96707.69
2023-08-27T01:39:06.621Z,96705.16
2023-08-27T01:41:24.833Z,96696.28
2023-08-27T01:43:36.736Z,96696.09
2023-08-27T01:46:00.814Z,96690.06
2023-08-27T01:48:24.538Z,96692.94
2023-08-27T01:50:40.223Z,96687.09
2023-08-27T01:52:49.048Z,96684.13
2023-08-27T01:55:04.120Z,96684.78
2023-08-27T01:57:14.790Z,96688.16
2023-08-27T01:59:28.561Z,96672.13
2023-08-27T02:01:44.207Z,96653.84
2023-08-27T02:03:52.658Z,96654.84
2023-08-27T02:05:58.940Z,96651.00
2023-08-27T02:08:12.638Z,96667.59
2023-08-27T02:10:44.566Z,96667.13
2023-08-27T02:12:55.878Z,96677.53
2023-08-27T02:15:16.552Z,96688.78
2023-08-27T02:17:30.985Z,96694.66
2023-08-27T02:19:41.873Z,96699.19
2023-08-27T02:22:07.335Z,96708.41
2023-08-27T02:24:22.217Z,96727.50
2023-08-27T02:26:43.433Z,96734.03
2023-08-27T02:29:28.110Z,96747.66
2023-08-27T02:31:42.044Z,96732.59
2023-08-27T02:34:19.205Z,96739.50
2023-08-27T02:36:36.617Z,96749.72
2023-08-27T02:38:49.436Z,96737.97
2023-08-27T02:41:07.074Z,96738.78
2023-08-27T02:43:38.778Z,96745.97
2023-08-27T02:46:14.929Z,96760.72
2023-08-27T02:48:45.599Z,96763.78
2023-08-27T02:51:20.633Z,96761.63
2023-08-27T02:57:01.666Z,96753.38
2023-08-27T02:59:22.114Z,96763.91
2023-08-27T03:01:40.134Z,96764.44
2023-08-27T03:03:49.678Z,96769.63
2023-08-27T03:06:00.298Z,96775.34
2023-08-27T03:08:10.298Z,96770.75
2023-08-27T03:10:22.109Z,96765.91
2023-08-27T03:12:33.912Z,96765.97
2023-08-27T03:14:45.052Z,96772.31
2023-08-27T03:16:55.575Z,96757.22
2023-08-27T03:19:05.008Z,96745.34
2023-08-27T03:21:10.458Z,96746.06
2023-08-27T03:23:18.592Z,96739.16
2023-08-27T03:25:24.017Z,96730.91
2023-08-27T03:27:32.743Z,96710.75
2023-08-27T03:29:41.353Z,96689.78
2023-08-27T03:31:52.500Z,96677.66
2023-08-27T03:34:01.042Z,96661.25
2023-08-27T03:36:09.734Z,96641.63
2023-08-27T03:38:18.065Z,96622.88
2023-08-27T03:40:26.164Z,96618.22
2023-08-27T03:42:34.662Z,96612.66
2023-08-27T03:44:42.696Z,96608.78
2023-08-27T03:46:53.632Z,96607.44
2023-08-27T03:49:04.047Z,96600.09
2023-08-27T03:51:12.237Z,96597.72
2023-08-27T03:53:20.267Z,96589.31
2023-08-27T03:55:28.293Z,96587.63
2023-08-27T03:57:36.978Z,96590.16
2023-08-27T03:59:45.326Z,96592.00
2023-08-27T04:01:57.511Z,96579.13
2023-08-27T04:04:04.756Z,96578.06
2023-08-27T04:06:13.852Z,96574.88
2023-08-27T04:08:22.657Z,96568.16
2023-08-27T04:10:30.874Z,96554.41
2023-08-27T04:12:39.316Z,96558.94
2023-08-27T04:14:48.045Z,96541.19
2023-08-27T04:16:58.887Z,96548.38
2023-08-27T04:19:07.016Z,96544.69
2023-08-27T04:21:15.145Z,96555.78
2023-08-27T04:23:23.512Z,96562.03
2023-08-27T04:25:32.817Z,96559.50
2023-08-27T04:27:41.224Z,96560.34
2023-08-27T04:29:49.315Z,96558.38
2023-08-27T04:32:00.775Z,96548.84
2023-08-27T04:34:08.952Z,96530.53
2023-08-27T04:36:19.317Z,96517.94
2023-08-27T04:38:27.371Z,96502.03
2023-08-27T04:40:36.045Z,96484.06
2023-08-27T04:42:44.219Z,96474.19
2023-08-27T04:44:52.447Z,96476.38
2023-08-27T04:47:06.586Z,96474.00
2023-08-27T04:49:14.626Z,96458.59
2023-08-27T04:51:23.389Z,96462.97
2023-08-27T04:53:31.569Z,96474.56
2023-08-27T04:55:39.842Z,96489.16
2023-08-27T04:57:48.698Z,96506.44
2023-08-27T04:59:59.067Z,96489.56
2023-08-27T05:02:10.122Z,96497.13
2023-08-27T05:04:18.608Z,96507.84
2023-08-27T05:06:26.695Z,96514.91
2023-08-27T05:08:34.850Z,96515.56
2023-08-27T05:10:42.998Z,96502.34
2023-08-27T05:12:51.725Z,96497.47
2023-08-27T05:15:00.949Z,96497.81
2023-08-27T05:17:13.267Z,96508.19
2023-08-27T05:19:21.458Z,96507.88
2023-08-27T05:21:29.606Z,96526.16
2023-08-27T05:23:38.883Z,96525.66
2023-08-27T05:25:45.103Z,96536.88
2023-08-27T05:27:54.067Z,96547.63
2023-08-27T05:30:03.889Z,96550.63
2023-08-27T05:32:14.891Z,96552.50
2023-08-27T05:34:24.484Z,96552.69
2023-08-27T05:36:33.111Z,96531.88
2023-08-27T05:38:41.167Z,96532.72
2023-08-27T05:40:49.159Z,96543.13
2023-08-27T05:42:57.498Z,96548.50
2023-08-27T05:45:06.159Z,96550.50
2023-08-27T05:47:18.474Z,96569.63
2023-08-27T05:49:27.008Z,96584.88
2023-08-27T05:51:35.236Z,96580.03
2023-08-27T05:53:44.271Z,96580.53
2023-08-27T05:55:52.312Z,96585.38
2023-08-27T05:58:04.875Z,96596.81
2023-08-27T06:00:17.382Z,96608.03
2023-08-27T06:02:30.345Z,96610.91
2023-08-27T06:04:41.074Z,96624.34
2023-08-27T06:06:50.718Z,96635.22
2023-08-27T06:08:58.905Z,96629.72
2023-08-27T06:11:07.673Z,96627.03
2023-08-27T06:13:18.785Z,96637.59
2023-08-27T06:15:28.879Z,96619.97
2023-08-27T06:17:39.621Z,96626.16
2023-08-27T06:19:49.705Z,96624.84
2023-08-27T06:22:01.998Z,96630.34
2023-08-27T06:24:11.276Z,96646.31
2023-08-27T06:26:23.964Z,96686.09
2023-08-27T06:28:32.538Z,96710.09
2023-08-27T06:30:46.913Z,96727.56
2023-08-27T06:32:58.119Z,96734.25
2023-08-27T06:35:13.692Z,96752.91
2023-08-27T06:37:22.148Z,96763.00
2023-08-27T06:39:30.702Z,96780.09
2023-08-27T06:41:39.909Z,96771.06
2023-08-27T06:44:00.090Z,96808.81
2023-08-27T06:46:09.108Z,96822.94
2023-08-27T06:48:20.098Z,96823.13
2023-08-27T06:50:28.629Z,96825.34
2023-08-27T06:52:38.880Z,96824.69
2023-08-27T06:54:48.812Z,96834.06
2023-08-27T06:56:58.743Z,96842.31
2023-08-27T06:59:08.415Z,96849.03
2023-08-27T07:01:16.844Z,96844.22
2023-08-27T07:03:29.400Z,96843.03
2023-08-27T07:05:38.059Z,96870.00
2023-08-27T07:07:46.168Z,96870.00
2023-08-27T07:09:54.696Z,96870.00
2023-08-27T07:12:05.127Z,96878.84
2023-08-27T07:14:19.325Z,96872.16
2023-08-27T07:16:28.430Z,96860.03
2023-08-27T07:18:39.789Z,96836.03
2023-08-27T07:20:48.172Z,96845.78
2023-08-27T07:22:58.335Z,96842.59
2023-08-27T07:25:10.504Z,96844.28
2023-08-27T07:27:19.324Z,96843.31
2023-08-27T07:29:28.177Z,96864.44
2023-08-27T07:31:36.670Z,96851.63
2023-08-27T07:33:48.424Z,96842.59
2023-08-27T07:35:56.908Z,96848.50
2023-08-27T07:38:05.095Z,96849.28
2023-08-27T07:40:14.483Z,96864.94
2023-08-27T07:42:23.032Z,96871.88
2023-08-27T07:44:33.045Z,96882.25
2023-08-27T07:46:43.958Z,96886.78
2023-08-27T07:48:58.534Z,96882.19
2023-08-27T07:51:09.301Z,96890.97
2023-08-27T07:53:18.744Z,96895.19
2023-08-27T07:55:27.644Z,96920.44
2023-08-27T07:57:36.122Z,96936.94
2023-08-27T07:59:46.113Z,96949.44
2023-08-27T08:01:55.420Z,96950.81
2023-08-27T08:04:14.912Z,96968.81
2023-08-27T08:06:23.640Z,96972.03
2023-08-27T08:08:36.350Z,96966.81
2023-08-27T08:10:44.730Z,96987.50
2023-08-27T08:12:53.931Z,97001.97
2023-08-27T08:14:59.916Z,97021.34
2023-08-27T08:17:13.487Z,97024.88
2023-08-27T08:19:25.617Z,97026.56
2023-08-27T08:21:34.699Z,97032.47
2023-08-27T08:23:40.321Z,97031.28
2023-08-27T08:25:55.925Z,97036.16
2023-08-27T08:28:04.084Z,97045.22
2023-08-27T08:30:12.672Z,97058.19
2023-08-27T08:32:23.553Z,97060.09
2023-08-27T08:34:36.343Z,97050.28
2023-08-27T08:36:45.264Z,97069.97
2023-08-27T08:38:53.567Z,97062.25
2023-08-27T08:41:05.291Z,97050.31
2023-08-27T08:43:19.417Z,97067.78
2023-08-27T08:45:33.820Z,97062.56
2023-08-27T08:47:42.516Z,97064.78
2023-08-27T08:49:58.264Z,97051.13
2023-08-27T08:52:11.799Z,97033.59
2023-08-27T08:54:24.212Z,97027.06
2023-08-27T08:56:36.998Z,97027.72
2023-08-27T08:58:55.627Z,97027.06
2023-08-27T09:01:06.806Z,97022.06
2023-08-27T09:03:20.169Z,97032.13
2023-08-27T09:05:33.278Z,97049.88
2023-08-27T09:07:43.214Z,97050.69
2023-08-27T09:09:55.278Z,97044.91
2023-08-27T09:12:04.308Z,97035.31
2023-08-27T09:14:13.998Z,97026.09
2023-08-27T09:16:22.867Z,97027.53
2023-08-27T09:18:30.943Z,97040.81
2023-08-27T09:20:41.751Z,97051.00
2023-08-27T09:22:50.219Z,97051.34
2023-08-27T09:24:58.870Z,97056.28
2023-08-27T09:27:08.621Z,97048.84
2023-08-27T09:29:19.236Z,97054.03
2023-08-27T09:31:41.176Z,97050.31
2023-08-27T09:33:50.723Z,97049.78
2023-08-27T09:36:03.068Z,97036.97
2023-08-27T09:38:14.411Z,97045.31
2023-08-27T09:40:22.705Z,97052.03
2023-08-27T09:42:30.901Z,97053.19
2023-08-27T09:44:40.835Z,97048.53
2023-08-27T09:46:51.742Z,97037.91
2023-08-27T09:49:06.092Z,97033.09
2023-08-27T09:51:21.815Z,97020.31
2023-08-27T09:53:30.285Z,97044.00
2023-08-27T09:55:39.790Z,97028.88
2023-08-27T09:57:52.711Z,97036.13
2023-08-27T10:00:00.785Z,97037.50
2023-08-27T10:02:15.816Z,97040.91
2023-08-27T10:04:25.171Z,97035.63
2023-08-27T10:06:41.532Z,97038.97
2023-08-27T10:08:51.734Z,97031.41
2023-08-27T10:11:17.251Z,97032.97
2023-08-27T10:13:29.376Z,97034.72
2023-08-27T10:15:39.252Z,97034.16
2023-08-27T10:17:48.396Z,97040.25
2023-08-27T10:19:58.419Z,97033.03
2023-08-27T10:22:09.366Z,97031.88
2023-08-27T10:24:17.806Z,97031.38
2023-08-27T10:26:27.271Z,97031.94
2023-08-27T10:28:38.477Z,97039.50
2023-08-27T10:30:49.330Z,97032.44
2023-08-27T10:32:58.150Z,97023.44
2023-08-27T10:35:08.348Z,97015.44
2023-08-27T10:37:22.227Z,97015.50
2023-08-27T10:39:33.744Z,97011.84
2023-08-27T10:41:42.725Z,97013.66
2023-08-27T10:43:52.546Z,97011.88
2023-08-27T10:46:11.776Z,97020.44
2023-08-27T10:48:31.776Z,97014.41
2023-08-27T10:50:48.167Z,97012.53
2023-08-27T10:53:00.649Z,97010.41
2023-08-27T10:55:10.592Z,97017.88
2023-08-27T10:57:25.242Z,97020.31
2023-08-27T10:59:34.675Z,97018.59
2023-08-27T11:02:09.698Z,97025.41
2023-08-27T11:04:21.686Z,97020.94
2023-08-27T11:06:48.254Z,97023.53
2023-08-27T11:09:00.159Z,97021.09
2023-08-27T11:11:15.799Z,97019.03
2023-08-27T11:13:39.455Z,97015.84
2023-08-27T11:15:47.462Z,97030.22
2023-08-27T11:17:55.669Z,97022.69
2023-08-27T11:20:24.851Z,97028.47
2023-08-27T11:22:35.241Z,97018.81
2023-08-27T11:24:44.905Z,97014.78
2023-08-27T11:26:53.907Z,97005.09
2023-08-27T11:29:04.800Z,97012.72
2023-08-27T11:31:13.356Z,97019.50
2023-08-27T11:33:26.232Z,97019.63
2023-08-27T11:35:34.637Z,97016.97
2023-08-27T11:37:43.193Z,97015.66
2023-08-27T11:39:54.106Z,97021.47
2023-08-27T11:42:01.128Z,97016.53
2023-08-27T11:44:17.702Z,97020.66
2023-08-27T11:46:26.533Z,97013.31
2023-08-27T11:48:35.026Z,97017.75
2023-08-27T11:50:46.413Z,97002.47
2023-08-27T11:52:57.311Z,97016.31
2023-08-27T11:55:14.410Z,97009.09
2023-08-27T11:57:23.208Z,97015.19
2023-08-27T11:59:32.370Z,97019.44
2023-08-27T12:01:40.553Z,97017.03
2023-08-27T12:03:50.554Z,97018.03
2023-08-27T12:05:58.042Z,97012.44
2023-08-27T12:08:12.364Z,97017.13
2023-08-27T12:10:24.522Z,97020.09
2023-08-27T12:12:32.936Z,97016.56
2023-08-27T12:14:38.531Z,97014.03
2023-08-27T12:16:47.428Z,97014.50
2023-08-27T12:19:04.912Z,97011.69
2023-08-27T12:21:13.198Z,97016.72
2023-08-27T12:23:22.388Z,97017.56
2023-08-27T12:25:34.333Z,97021.28
2023-08-27T12:27:42.699Z,97013.09
2023-08-27T12:29:55.227Z,97012.31
2023-08-27T12:32:08.612Z,97013.16
2023-08-27T12:34:19.174Z,97013.50
2023-08-27T12:36:29.828Z,97021.59
2023-08-27T12:38:40.574Z,97018.59
2023-08-27T12:40:51.527Z,97003.72
2023-08-27T12:42:59.741Z,96996.53
2023-08-27T12:45:09.222Z,97010.53
2023-08-27T12:47:14.955Z,97014.25
2023-08-27T12:49:23.031Z,97008.16
2023-08-27T12:51:31.255Z,96996.78
2023-08-27T12:53:39.618Z,97007.22
2023-08-27T12:55:52.916Z,97009.34
2023-08-27T12:58:01.414Z,97018.34
2023-08-27T13:00:13.918Z,97003.66
2023-08-27T13:02:22.024Z,97003.22
2023-08-27T13:04:31.723Z,97003.09
2023-08-27T13:06:38.312Z,96998.03
2023-08-27T13:08:48.104Z,96990.81
2023-08-27T13:10:59.230Z,96987.72
2023-08-27T13:13:08.563Z,96989.97
2023-08-27T13:15:19.625Z,96988.28
2023-08-27T13:17:27.749Z,96988.38
2023-08-27T13:19:35.912Z,96993.31
2023-08-27T13:21:47.070Z,96988.25
2023-08-27T13:23:55.460Z,96990.13
2023-08-27T13:26:06.410Z,96991.25
2023-08-27T13:28:14.780Z,96990.03
2023-08-27T13:30:24.234Z,96982.03
2023-08-27T13:32:32.586Z,96989.47
2023-08-27T13:34:42.063Z,96993.88
2023-08-27T13:36:47.670Z,96985.75
2023-08-27T13:38:56.847Z,96987.81
2023-08-27T13:41:11.681Z,96985.03
2023-08-27T13:43:19.874Z,96990.72
2023-08-27T13:45:28.108Z,97005.16
2023-08-27T13:47:36.626Z,97001.88
2023-08-27T13:49:44.829Z,97013.38
2023-08-27T13:51:53.143Z,97008.34
2023-08-27T13:54:01.378Z,97014.41
2023-08-27T13:56:12.313Z,97010.28
2023-08-27T13:58:20.666Z,97018.47
2023-08-27T14:00:30.135Z,97009.88
2023-08-27T14:02:38.666Z,97002.53
2023-08-27T14:04:46.988Z,96997.88
2023-08-27T14:06:52.673Z,96998.50
2023-08-27T14:09:00.799Z,96991.88
2023-08-27T14:11:11.848Z,96987.97
2023-08-27T14:13:20.235Z,96999.66
2023-08-27T14:15:28.567Z,96991.44
2023-08-27T14:17:36.709Z,96992.66
2023-08-27T14:19:45.000Z,96999.19
2023-08-27T14:21:53.235Z,96998.19
2023-08-27T14:24:01.453Z,96994.31
2023-08-27T14:26:12.244Z,96984.34
2023-08-27T14:28:20.440Z,96980.88
2023-08-27T14:30:28.513Z,96986.63
2023-08-27T14:32:36.633Z,96991.47
2023-08-27T14:34:44.863Z,96998.06
2023-08-27T14:36:53.323Z,97006.34
2023-08-27T14:39:02.693Z,97016.22
2023-08-27T14:41:13.635Z,97026.38
2023-08-27T14:43:21.753Z,97035.00
2023-08-27T14:45:31.236Z,97034.59
2023-08-27T14:47:40.623Z,97044.38
2023-08-27T14:49:48.787Z,97047.59
2023-08-27T14:51:57.289Z,97044.75
2023-08-27T14:54:06.224Z,97060.16
2023-08-27T14:56:17.531Z,97066.13
2023-08-27T14:58:27.957Z,97071.28
2023-08-27T15:00:37.639Z,97060.38
2023-08-27T15:02:45.806Z,97051.06
2023-08-27T15:04:53.885Z,97044.91
2023-08-27T15:07:00.500Z,97052.34
2023-08-27T15:09:08.749Z,97041.66
2023-08-27T15:11:19.790Z,97037.00
2023-08-27T15:13:27.884Z,97027.91
2023-08-27T15:15:36.126Z,97014.22
2023-08-27T15:17:44.657Z,97010.06
2023-08-27T15:19:52.741Z,96996.53
2023-08-27T15:22:01.132Z,96991.78
2023-08-27T15:24:10.725Z,96983.72
2023-08-27T15:26:21.552Z,96973.97
2023-08-27T15:28:29.953Z,96983.19
2023-08-27T15:30:39.332Z,96976.22
2023-08-27T15:32:47.474Z,96975.28
2023-08-27T15:34:56.130Z,96987.59
2023-08-27T15:37:04.060Z,96988.38
2023-08-27T15:39:09.537Z,97002.97
2023-08-27T15:41:17.826Z,97005.22
2023-08-27T15:43:36.439Z,97021.06
2023-08-27T15:45:44.843Z,97023.50
2023-08-27T15:47:53.045Z,97010.78
2023-08-27T15:50:01.279Z,97028.03
2023-08-27T15:52:09.742Z,97021.31
2023-08-27T15:54:17.981Z,97013.25
2023-08-27T15:56:26.177Z,97018.69
2023-08-27T15:58:36.799Z,97019.72
2023-08-27T16:00:47.334Z,97017.28
2023-08-27T16:02:52.838Z,97020.25
2023-08-27T16:05:00.784Z,97015.72
2023-08-27T16:07:08.941Z,97013.22
2023-08-27T16:09:17.628Z,97002.63
2023-08-27T16:11:25.722Z,96993.88
2023-08-27T16:13:36.681Z,97001.63
2023-08-27T16:15:45.085Z,96995.56
2023-08-27T16:17:53.255Z,97002.25
2023-08-27T16:20:01.456Z,97002.56
2023-08-27T16:22:09.397Z,97007.00
2023-08-27T16:24:17.840Z,97009.63
2023-08-27T16:26:26.560Z,97004.88
2023-08-27T16:28:34.873Z,97014.69
2023-08-27T16:30:42.891Z,96991.50
2023-08-27T16:32:53.444Z,96987.25
2023-08-27T16:35:01.621Z,96980.59
2023-08-27T16:37:09.589Z,96973.94
2023-08-27T16:39:17.710Z,96980.28
2023-08-27T16:41:25.805Z,96962.13
2023-08-27T16:43:37.302Z,96951.25
2023-08-27T16:45:46.058Z,96956.78
2023-08-27T16:47:54.752Z,96962.91
2023-08-27T16:50:03.111Z,96975.56
2023-08-27T16:52:11.680Z,96970.88
2023-08-27T16:54:22.671Z,96955.25
2023-08-27T16:56:30.744Z,96958.69
2023-08-27T16:58:41.460Z,96953.50
2023-08-27T17:00:52.350Z,96951.94
2023-08-27T17:03:03.340Z,96952.50
2023-08-27T17:05:13.167Z,96958.06
2023-08-27T17:07:22.634Z,96953.88
2023-08-27T17:09:29.099Z,96946.44
2023-08-27T17:11:39.973Z,96934.69
2023-08-27T17:13:50.545Z,96922.22
2023-08-27T17:15:58.505Z,96921.13
2023-08-27T17:18:07.442Z,96926.72
2023-08-27T17:20:16.191Z,96934.56
2023-08-27T17:22:25.831Z,96940.47
2023-08-27T17:24:33.978Z,96941.69
2023-08-27T17:26:41.965Z,96945.28
2023-08-27T17:28:52.599Z,96930.53
2023-08-27T17:31:01.116Z,96932.25
2023-08-27T17:33:12.241Z,96942.59
2023-08-27T17:35:21.067Z,96941.31
2023-08-27T17:37:26.485Z,96947.91
2023-08-27T17:39:34.602Z,96941.44
2023-08-27T17:41:52.680Z,96930.69
2023-08-27T17:44:03.200Z,96925.50
2023-08-27T17:46:10.632Z,96919.66
2023-08-27T17:48:18.610Z,96899.97
2023-08-27T17:50:26.693Z,96916.75
2023-08-27T17:52:35.083Z,96908.63
2023-08-27T17:54:43.099Z,96895.06
2023-08-27T17:56:52.991Z,96888.25
2023-08-27T17:59:04.101Z,96885.06
2023-08-27T18:01:14.200Z,96892.22
2023-08-27T18:03:22.464Z,96895.28
2023-08-27T18:05:30.699Z,96895.78
2023-08-27T18:07:38.911Z,96891.25
2023-08-27T18:09:47.439Z,96888.25
2023-08-27T18:11:53.072Z,96888.50
2023-08-27T18:14:03.766Z,96886.50
2023-08-27T18:16:13.926Z,96892.63
2023-08-27T18:18:22.101Z,96915.16
2023-08-27T18:20:30.290Z,96931.00
2023-08-27T18:22:38.364Z,96954.25
2023-08-27T18:24:46.649Z,96951.75
2023-08-27T18:26:54.700Z,96957.22
2023-08-27T18:29:05.654Z,96967.41
2023-08-27T18:31:15.125Z,96975.66
2023-08-27T18:33:23.481Z,96985.31
2023-08-27T18:35:34.251Z,96977.88
2023-08-27T18:37:43.349Z,96982.78
2023-08-27T18:39:51.916Z,96976.75
2023-08-27T18:42:00.036Z,96969.88
2023-08-27T18:44:11.479Z,96967.19
2023-08-27T18:46:19.786Z,96972.34
2023-08-27T18:48:27.801Z,96983.91
2023-08-27T18:50:33.419Z,96981.84
2023-08-27T18:52:41.606Z,96966.59
2023-08-27T18:54:49.691Z,96966.88
2023-08-27T18:56:57.683Z,96966.00
2023-08-27T18:59:05.692Z,96969.97
2023-08-27T19:01:16.486Z,96979.84
2023-08-27T19:03:25.964Z,96975.19
2023-08-27T19:05:31.389Z,96980.84
2023-08-27T19:07:39.749Z,96979.84
2023-08-27T19:09:48.022Z,96977.88
2023-08-27T19:11:56.117Z,96988.44
2023-08-27T19:14:04.265Z,96993.09
2023-08-27T19:16:12.700Z,96996.91
2023-08-27T19:18:20.896Z,96991.72
2023-08-27T19:20:29.234Z,96996.50
2023-08-27T19:22:37.424Z,96995.09
2023-08-27T19:24:43.902Z,96987.50
2023-08-27T19:26:52.075Z,96979.06
2023-08-27T19:28:57.488Z,96983.34
2023-08-27T19:31:06.011Z,96977.81
2023-08-27T19:33:14.159Z,96980.81
2023-08-27T19:35:25.343Z,96971.19
2023-08-27T19:37:33.911Z,96974.47
2023-08-27T19:39:42.563Z,96968.97
2023-08-27T19:41:50.649Z,96967.72
2023-08-27T19:43:58.827Z,96962.22
2023-08-27T19:46:07.093Z,96959.28
2023-08-27T19:48:15.752Z,96958.88
2023-08-27T19:50:28.096Z,96975.63
2023-08-27T19:52:36.441Z,96963.09
2023-08-27T19:54:44.537Z,96965.38
2023-08-27T19:56:52.885Z,96956.78
2023-08-27T19:59:02.319Z,96951.84
2023-08-27T20:01:11.070Z,96951.81
2023-08-27T20:03:19.524Z,96951.53
2023-08-27T20:05:31.366Z,96957.19
2023-08-27T20:07:39.427Z,96963.53
2023-08-27T20:09:47.602Z,96954.66
2023-08-27T20:11:55.688Z,96956.50
2023-08-27T20:14:03.844Z,96963.69
2023-08-27T20:16:11.948Z,96962.41
2023-08-27T20:18:21.593Z,96970.97
2023-08-27T20:20:32.815Z,96972.13
2023-08-27T20:22:43.431Z,96972.41
2023-08-27T20:24:51.615Z,96971.81
2023-08-27T20:27:01.817Z,96976.88
2023-08-27T20:29:09.978Z,96968.69
2023-08-27T20:31:18.252Z,96961.53
2023-08-27T20:33:27.095Z,96961.13
2023-08-27T20:35:40.307Z,96962.69
2023-08-27T20:37:48.782Z,96965.38
2023-08-27T20:39:58.104Z,96963.97
2023-08-27T20:42:06.414Z,96955.78
2023-08-27T20:44:16.989Z,96959.44
2023-08-27T20:46:25.104Z,96959.00
2023-08-27T20:48:33.896Z,96961.13
2023-08-27T20:50:44.521Z,96966.63
2023-08-27T20:52:52.666Z,96962.13
2023-08-27T20:55:00.994Z,96954.66
2023-08-27T20:57:09.335Z,96949.75
2023-08-27T20:59:17.271Z,96951.56
2023-08-27T21:01:25.468Z,96954.41
2023-08-27T21:03:33.785Z,96948.06
2023-08-27T21:05:46.652Z,96948.63
2023-08-27T21:07:55.575Z,96956.47
2023-08-27T21:10:04.170Z,96967.44
2023-08-27T21:12:12.584Z,96964.81
2023-08-27T21:14:21.102Z,96966.06
2023-08-27T21:16:29.230Z,96963.97
2023-08-27T21:18:37.417Z,96963.97
2023-08-27T21:20:48.252Z,96956.09
2023-08-27T21:22:56.243Z,96949.16
2023-08-27T21:25:04.806Z,96949.47
2023-08-27T21:27:12.886Z,96954.97
2023-08-27T21:29:19.455Z,96956.94
2023-08-27T21:31:43.847Z,96953.03
2023-08-27T21:33:56.085Z,96944.56
2023-08-27T21:36:07.222Z,96941.91
2023-08-27T21:38:15.367Z,96934.97
2023-08-27T21:40:23.670Z,96938.94
2023-08-27T21:42:31.794Z,96938.81
2023-08-27T21:44:40.228Z,96942.59
2023-08-27T21:46:48.374Z,96943.88
2023-08-27T21:48:56.484Z,96944.84
2023-08-27T21:51:07.959Z,96946.81
2023-08-27T21:53:16.884Z,96942.03
2023-08-27T21:55:23.236Z,96933.84
2023-08-27T21:57:32.133Z,96928.34
2023-08-27T21:59:40.177Z,96940.63
2023-08-27T22:01:48.686Z,96939.91
2023-08-27T22:03:56.856Z,96944.84
2023-08-27T22:06:09.675Z,96942.59
2023-08-27T22:08:17.893Z,96943.75
2023-08-27T22:10:27.273Z,96940.66
2023-08-27T22:12:35.594Z,96937.81
2023-08-27T22:14:43.731Z,96943.16
2023-08-27T22:16:52.661Z,96940.47
2023-08-27T22:19:13.122Z,96946.16
2023-08-27T22:21:31.756Z,96942.06
2023-08-27T22:23:40.019Z,96942.66
2023-08-27T22:25:48.162Z,96935.75
2023-08-27T22:27:56.213Z,96930.81
2023-08-27T22:30:04.994Z,96932.06
2023-08-27T22:32:13.376Z,96929.78
2023-08-27T22:34:21.453Z,96936.97
2023-08-27T22:36:32.065Z,96937.38
2023-08-27T22:38:40.223Z,96948.84
2023-08-27T22:40:48.451Z,96963.47
2023-08-27T22:42:56.543Z,96963.47
2023-08-27T22:45:05.147Z,96959.25
2023-08-27T22:47:13.380Z,96975.84
2023-08-27T22:49:21.683Z,96966.56
2023-08-27T22:51:34.713Z,96966.56
2023-08-27T22:53:43.902Z,96955.59
2023-08-27T22:55:52.241Z,96956.44
2023-08-27T22:58:00.326Z,96946.84
2023-08-27T23:00:10.361Z,96947.56
2023-08-27T23:02:19.886Z,96957.28
2023-08-27T23:04:28.811Z,96961.91
2023-08-27T23:06:39.846Z,96956.72
2023-08-27T23:08:45.566Z,96951.34
2023-08-27T23:10:56.412Z,96947.41
2023-08-27T23:13:06.139Z,96940.88
2023-08-27T23:15:15.827Z,96953.03
2023-08-27T23:17:24.042Z,96953.75
2023-08-27T23:19:33.012Z,96959.66
2023-08-27T23:21:43.819Z,96969.94
2023-08-27T23:23:55.284Z,96967.41
2023-08-27T23:26:04.599Z,96985.56
2023-08-27T23:28:16.269Z,96983.59
2023-08-27T23:30:24.622Z,96998.50
2023-08-27T23:32:32.914Z,97008.78
2023-08-27T23:34:41.029Z,97005.84
2023-08-27T23:36:51.755Z,97007.81
2023-08-27T23:38:59.952Z,96994.59
2023-08-27T23:41:08.128Z,96994.84
2023-08-27T23:43:16.156Z,96994.72
2023-08-27T23:45:25.396Z,96991.91
2023-08-27T23:47:33.607Z,96986.28
2023-08-27T23:49:42.131Z,96972.34
2023-08-27T23:51:53.173Z,96976.00
2023-08-27T23:54:01.226Z,96952.06
2023-08-27T23:56:09.269Z,96935.63
2023-08-27T23:58:17.896Z,96920.84
